Time;durP1;ratioP1;P1;durP2;ratioP2;P2;SDS_P1;SDS_P2;PMS_P1;PMS_P2;Temp;Humidity;BMP_temperature;BMP_pressure;BME280_temperature;BME280_humidity;BME280_pressure;Samples;Min_cycle;Max_cycle;Signal;HPM_P1;HPM_P2
2021/08/12 10:38:10;;;;;;;6.90;5.35;;;29.00;90.60;;;30.31;44.68;100919.59;6311459;22;20449;-89
2021/08/12 10:40:57;;;;;;;8.30;6.13;;;28.80;85.60;;;30.89;43.31;100920.41;6268160;22;20027;-89
2021/08/12 10:43:29;;;;;;;6.28;4.40;;;28.90;85.00;;;31.57;42.58;100909.69;6282567;22;20090;-90
2021/08/12 10:46:02;;;;;;;6.22;4.65;;;29.10;83.80;;;31.95;40.56;100914.59;6230521;22;20015;-90
2021/08/12 10:48:32;;;;;;;7.70;5.00;;;29.30;81.60;;;31.52;41.68;100907.53;6282192;22;20011;-90
2021/08/12 10:51:11;;;;;;;5.93;4.60;;;29.40;81.10;;;31.49;42.51;100896.94;6308333;22;20082;-89
2021/08/12 10:54:15;;;;;;;7.20;4.80;;;29.40;81.90;;;31.74;41.27;100899.25;6281073;22;20010;-89
2021/08/12 10:56:42;;;;;;;8.85;4.70;;;29.50;80.10;;;31.77;42.02;100898.25;6262093;22;20015;-89
2021/08/12 10:59:09;;;;;;;7.20;4.47;;;29.40;82.80;;;32.08;40.78;100897.72;6280380;22;20022;-89
2021/08/12 11:01:49;;;;;;;5.53;4.10;;;29.50;79.90;;;31.98;40.74;100899.91;6282828;22;20405;-90
2021/08/12 11:04:52;;;;;;;8.45;4.80;;;29.60;79.30;;;31.53;41.71;100898.34;6284577;22;20502;-90
2021/08/12 11:07:39;;;;;;;6.35;4.68;;;29.50;78.70;;;31.15;39.75;100907.03;6308980;22;20003;-91
2021/08/12 14:12:49;;;;;;;6.38;3.50;;;28.30;71.00;;;30.91;40.43;100886.88;6312224;22;20023;-88
2021/08/12 14:15:43;;;;;;;6.03;4.07;;;28.70;73.90;;;31.12;37.64;100888.63;6254372;22;20003;-88
2021/08/12 14:18:14;;;;;;;7.65;3.38;;;28.80;68.40;;;31.28;37.54;100891.03;6254538;22;20004;-88
2021/08/12 14:22:24;;;;;;;5.78;3.55;;;29.00;67.50;;;30.60;38.08;100890.16;6252042;22;20007;-90
2021/08/12 14:26:40;;;;;;;;;;;;;;;;;;;;;
2021/08/12 15:06:07;;;;;;;4.72;3.40;;;27.40;67.10;;;29.65;36.96;100866.91;6186854;23;20067;-91
2021/08/12 15:09:53;;;;;;;7.95;3.38;;;27.50;67.60;;;29.41;35.83;100868.09;6108103;23;20043;-90
2021/08/12 15:14:12;;;;;;;8.25;3.42;;;27.40;62.10;;;29.13;35.17;100865.22;6178266;23;20067;-91
2021/08/12 15:18:09;;;;;;;8.73;2.92;;;27.20;63.60;;;28.96;37.16;100846.69;6278573;22;20011;-91
2021/08/12 15:20:58;;;;;;;4.85;3.33;;;27.10;63.20;;;29.10;37.08;100836.63;6186907;23;20587;-91
2021/08/12 15:33:00;;;;;;;8.13;4.03;;;27.00;61.50;;;28.81;36.86;100850.69;6153679;23;20364;-89
2021/08/12 15:49:26;;;;;;;9.05;4.45;;;26.60;58.90;;;28.15;36.39;100844.53;5984243;24;20023;-91
2021/08/12 15:56:39;;;;;;;6.80;4.15;;;26.00;61.70;;;27.56;37.74;100846.50;6067924;23;20058;-90
2021/08/12 15:59:46;;;;;;;5.32;4.30;;;25.70;62.80;;;27.57;39.27;100836.63;5982453;23;20020;-90
2021/08/12 16:03:33;;;;;;;7.60;4.45;;;25.70;66.60;;;27.55;38.07;100833.41;5994546;23;20112;-89
2021/08/12 16:06:00;;;;;;;5.20;4.30;;;25.60;64.40;;;27.50;34.64;100834.03;6151384;23;20001;-88
2021/08/12 16:08:27;;;;;;;6.30;4.65;;;25.70;59.80;;;27.52;35.24;100827.81;6220557;23;20070;-88
2021/08/12 16:10:53;;;;;;;5.90;4.22;;;25.70;59.70;;;27.63;38.10;100836.81;6234858;22;20004;-89
2021/08/12 16:13:20;;;;;;;6.68;4.82;;;25.80;65.40;;;27.67;36.12;100829.69;6252576;22;20008;-89
2021/08/12 16:15:46;;;;;;;5.82;4.70;;;25.70;61.40;;;27.73;37.39;100829.84;6252495;22;20039;-89
2021/08/12 16:18:12;;;;;;;6.70;4.45;;;25.80;64.20;;;27.80;37.80;100826.69;6251388;22;20020;-90
2021/08/12 16:20:38;;;;;;;5.88;4.85;;;25.80;64.00;;;27.84;38.30;100830.19;6251202;22;20004;-89
2021/08/12 16:23:06;;;;;;;7.32;5.15;;;25.90;65.50;;;27.79;37.85;100830.03;6251523;22;20392;-91
2021/08/12 16:25:32;;;;;;;8.40;5.45;;;25.80;64.00;;;27.70;38.39;100831.59;6251687;22;20003;-88
2021/08/12 17:17:16;;;;;;;8.02;5.40;;;24.20;76.20;;;26.00;45.20;100819.03;5615540;22;15148963;-89
2021/08/12 17:19:42;;;;;;;8.38;5.45;;;24.20;77.10;;;25.93;45.18;100825.00;6151209;23;20028;-90
2021/08/12 17:22:11;;;;;;;6.03;5.00;;;24.10;76.90;;;25.86;45.15;100813.78;6125689;23;20008;-92
2021/08/12 17:24:59;;;;;;;9.18;5.50;;;24.10;76.70;;;25.81;45.07;100820.09;6150305;23;20087;-91
2021/08/12 17:27:41;;;;;;;9.45;5.72;;;24.00;76.90;;;25.73;45.19;100827.28;6183642;23;20008;-90
2021/08/12 17:31:15;;;;;;;7.95;5.47;;;23.90;77.40;;;25.56;45.86;100818.00;6156160;23;20023;-91
2021/08/12 17:33:41;;;;;;;6.82;5.40;;;23.80;78.50;;;25.42;46.54;100816.41;6174789;23;20012;-90
2021/08/12 17:36:08;;;;;;;7.50;5.47;;;23.70;80.20;;;25.27;47.35;100808.72;6196776;23;20032;-90
2021/08/12 17:39:11;;;;;;;7.72;5.32;;;23.60;81.50;;;25.13;48.68;100824.25;6197581;23;20012;-89
2021/08/12 17:42:55;;;;;;;7.35;5.70;;;23.40;83.80;;;24.97;49.00;100821.44;6218324;23;20011;-89
2021/08/12 17:47:05;;;;;;;10.45;5.70;;;23.20;85.30;;;24.81;49.86;100815.75;6218329;23;20009;-90
2021/08/12 17:49:49;;;;;;;10.52;6.40;;;23.10;87.30;;;24.71;49.99;100819.72;6218510;23;20008;-92
2021/08/12 17:52:50;;;;;;;11.52;6.55;;;22.90;89.40;;;24.63;50.80;100821.97;6166858;23;20019;-91
2021/08/12 17:59:04;;;;;;;9.85;6.78;;;22.80;90.90;;;24.42;50.96;100814.81;6113991;23;20085;-91
2021/08/12 18:02:36;;;;;;;7.20;6.10;;;22.70;91.80;;;24.36;51.70;100815.81;6182177;23;20013;-91
2021/08/12 18:06:51;;;;;;;8.85;5.93;;;22.60;93.20;;;24.23;51.88;100806.38;6196366;23;20016;-90
2021/08/12 18:10:46;;;;;;;11.57;7.32;;;22.60;94.50;;;24.14;52.76;100818.41;6157205;23;20013;-92
2021/08/12 18:14:37;;;;;;;10.45;6.68;;;22.40;96.80;;;24.01;53.63;100811.78;6222202;23;20009;-91
2021/08/12 18:18:19;;;;;;;8.77;6.32;;;22.30;99.90;;;23.88;53.66;100811.72;6190882;23;20017;-91
2021/08/12 18:21:25;;;;;;;9.10;5.68;;;22.20;99.90;;;23.77;54.74;100816.06;6188272;23;20473;-91
2021/08/12 18:24:56;;;;;;;;;;;22.10;99.90;;;23.69;55.78;100821.16;6187653;23;20124;-90
2021/08/12 18:33:06;;;;;;;7.88;5.65;;;21.90;99.90;;;23.33;57.67;100821.13;6189625;23;20040;-92
2021/08/12 18:36:07;;;;;;;;;;;21.70;99.90;;;23.22;58.71;100828.28;6187162;23;20439;-92
2021/08/12 18:40:05;;;;;;;8.07;6.00;;;21.60;99.90;;;23.14;58.98;100829.69;6187141;23;20389;-92
2021/08/12 18:42:53;;;;;;;9.77;5.88;;;21.50;99.90;;;23.05;59.80;100822.53;6184652;23;20073;-90
2021/08/12 18:45:19;;;;;;;8.15;6.10;;;21.40;99.90;;;22.99;60.36;100817.78;6178955;23;20013;-91
2021/08/12 18:47:45;;;;;;;10.73;6.60;;;21.40;99.90;;;22.94;60.91;100816.28;6193372;23;20424;-91
2021/08/12 18:50:17;;;;;;;9.90;6.55;;;21.30;99.90;;;22.95;61.04;100825.63;6186630;23;20447;-91
2021/08/12 18:52:47;;;;;;;9.43;6.55;;;21.30;99.90;;;22.90;61.71;100817.59;6184490;23;20023;-91
2021/08/12 18:55:15;;;;;;;11.35;6.60;;;21.30;99.90;;;22.75;62.58;100825.63;6187511;23;20005;-91
2021/08/12 18:57:41;;;;;;;10.40;6.97;;;21.20;99.90;;;22.58;63.61;100840.97;6187106;23;20009;-91
2021/08/12 19:00:09;;;;;;;8.50;6.13;;;21.10;99.90;;;22.43;64.24;100834.75;6188602;23;20016;-91
2021/08/12 19:02:35;;;;;;;10.20;6.68;;;20.90;99.90;;;22.28;64.82;100833.41;6184642;23;20031;-91
2021/08/12 19:05:02;;;;;;;10.90;7.28;;;20.70;99.90;;;22.21;65.67;100844.91;6186198;23;20300;-91
2021/08/12 19:07:28;;;;;;;10.10;7.45;;;20.70;99.90;;;22.10;66.21;100838.59;6186285;23;20016;-90
2021/08/12 19:09:54;;;;;;;10.60;7.13;;;20.60;99.90;;;22.01;66.62;100833.47;6185504;23;20013;-91
2021/08/12 19:12:21;;;;;;;10.98;7.32;;;20.50;99.90;;;21.97;67.01;100835.56;6184177;23;20056;-91
2021/08/12 19:14:48;;;;;;;10.13;6.65;;;20.40;99.90;;;21.94;67.21;100827.88;6185166;23;20041;-90
2021/08/12 19:17:14;;;;;;;9.40;7.05;;;20.50;99.90;;;21.93;67.48;100834.81;6185051;23;20009;-90
2021/08/12 19:19:40;;;;;;;14.50;7.93;;;20.40;99.90;;;21.94;67.93;100827.06;6184834;23;20013;-89
2021/08/12 19:22:06;;;;;;;11.70;7.93;;;20.40;99.90;;;21.97;67.84;100838.41;6185543;23;20074;-90
2021/08/12 19:24:36;;;;;;;13.05;8.25;;;20.40;99.90;;;21.93;67.82;100829.09;6185444;23;20435;-90
2021/08/12 19:27:03;;;;;;;11.82;7.78;;;20.40;99.90;;;21.95;67.67;100838.03;6188101;23;20015;-91
2021/08/12 19:29:29;;;;;;;11.57;7.80;;;20.40;99.90;;;21.95;67.88;100845.75;6190954;23;20013;-93
2021/08/12 19:31:55;;;;;;;11.98;8.23;;;20.40;99.90;;;21.92;68.77;100849.47;6189204;23;20264;-91
2021/08/12 19:34:21;;;;;;;11.02;8.18;;;20.30;99.90;;;21.81;69.53;100849.59;6186681;23;20411;-89
2021/08/12 19:36:58;;;;;;;11.45;8.45;;;20.20;99.90;;;21.73;70.22;100856.63;6187380;23;20012;-90
2021/08/12 19:39:24;;;;;;;13.48;9.63;;;20.20;99.90;;;21.68;70.93;100861.97;6184566;23;20015;-90
2021/08/12 19:41:53;;;;;;;14.05;9.05;;;20.10;99.90;;;21.58;71.83;100858.06;6188175;23;20339;-87
2021/08/12 19:44:19;;;;;;;14.25;8.80;;;20.10;99.90;;;21.56;72.58;100866.22;6185033;23;20009;-92
2021/08/12 19:46:45;;;;;;;17.23;9.38;;;20.10;99.90;;;21.52;73.14;100869.13;6184706;23;20071;-91
2021/08/12 19:49:11;;;;;;;14.55;9.05;;;20.00;99.90;;;21.49;73.96;100861.44;6184570;23;20017;-91
2021/08/12 19:51:40;;;;;;;17.35;10.63;;;19.90;99.90;;;21.51;74.29;100866.72;6184900;23;20378;-91
2021/08/12 19:54:06;;;;;;;14.55;9.93;;;20.00;99.90;;;21.53;74.06;100862.22;6185769;23;20005;-92
2021/08/12 19:56:33;;;;;;;12.63;8.93;;;20.00;99.90;;;21.54;73.73;100857.34;6185330;23;20079;-92
2021/08/12 19:59:00;;;;;;;13.32;9.07;;;19.90;99.90;;;21.58;72.90;100852.38;6185249;23;20009;-91
2021/08/12 20:01:26;;;;;;;13.25;8.75;;;20.10;99.90;;;21.64;70.64;100855.56;6184854;23;20016;-91
2021/08/12 20:03:52;;;;;;;12.45;8.50;;;20.10;99.90;;;21.79;69.58;100857.75;6183334;23;20335;-91
2021/08/12 20:06:18;;;;;;;13.73;8.60;;;20.20;99.90;;;21.85;70.73;100864.56;6185301;23;20297;-91
2021/08/12 20:08:44;;;;;;;13.10;8.63;;;20.30;99.90;;;21.85;71.47;100864.56;6184662;23;20066;-92
2021/08/12 20:11:10;;;;;;;11.93;8.32;;;20.30;99.90;;;21.76;72.06;100864.31;6185177;23;20012;-91
2021/08/12 20:13:36;;;;;;;12.65;9.18;;;20.20;99.90;;;21.68;72.48;100879.84;6184781;23;20145;-91
2021/08/12 20:16:05;;;;;;;11.45;8.43;;;20.20;99.90;;;21.62;72.58;100875.06;6184579;23;20035;-91
2021/08/12 20:18:37;;;;;;;11.20;8.25;;;20.10;99.90;;;21.60;73.04;100897.44;6186112;23;20009;-90
2021/08/12 20:21:04;;;;;;;13.30;9.07;;;20.00;99.90;;;21.52;72.90;100894.69;6184738;23;20015;-90
2021/08/12 20:23:31;;;;;;;13.55;7.75;;;19.90;99.90;;;21.47;72.74;100886.66;6185009;23;20016;-90
2021/08/12 20:25:58;;;;;;;11.65;8.23;;;20.00;99.90;;;21.46;72.77;100893.56;6184651;23;20435;-92
2021/08/12 20:28:23;;;;;;;11.07;7.80;;;20.00;99.90;;;21.44;73.61;100909.44;6183960;23;20020;-92
2021/08/12 20:30:50;;;;;;;9.27;7.53;;;19.90;99.90;;;21.39;73.90;100907.06;6184437;23;20040;-91
2021/08/12 20:33:15;;;;;;;10.82;7.25;;;19.90;99.90;;;21.38;74.25;100911.13;6184567;23;20011;-92
2021/08/12 20:35:41;;;;;;;10.88;7.43;;;19.80;99.90;;;21.34;74.15;100914.03;6184489;23;20013;-90
2021/08/12 20:38:08;;;;;;;12.38;7.57;;;19.80;99.90;;;21.33;73.91;100909.56;6209667;23;20104;-91
2021/08/12 20:40:35;;;;;;;11.27;7.78;;;19.80;99.90;;;21.38;73.42;100917.59;6184621;23;20037;-90
2021/08/12 20:43:02;;;;;;;12.07;8.32;;;19.80;99.90;;;21.38;73.30;100920.44;6185065;23;20016;-91
2021/08/12 20:45:29;;;;;;;11.15;7.82;;;19.80;99.90;;;21.43;73.57;100931.34;6209705;23;20019;-92
2021/08/12 20:47:54;;;;;;;13.18;8.07;;;19.90;99.90;;;21.41;73.69;100924.50;6184799;23;20462;-92
2021/08/12 20:50:21;;;;;;;12.55;7.53;;;19.90;99.90;;;21.43;74.20;100934.19;6206791;23;20017;-90
2021/08/12 20:52:46;;;;;;;13.63;8.25;;;19.80;99.90;;;21.38;74.95;100931.03;6196620;23;20044;-90
2021/08/12 20:55:15;;;;;;;13.20;8.48;;;19.90;99.90;;;21.38;74.74;100928.19;6184613;23;20396;-91
2021/08/12 20:57:46;;;;;;;12.35;8.88;;;19.90;99.90;;;21.39;73.61;100924.91;6185977;23;20008;-91
2021/08/12 21:00:12;;;;;;;12.48;8.65;;;19.90;99.90;;;21.50;73.21;100936.16;6183433;23;20009;-91
2021/08/12 21:02:38;;;;;;;10.93;8.25;;;20.00;99.90;;;21.57;72.22;100935.25;6183796;23;20443;-91
2021/08/12 21:05:08;;;;;;;10.75;8.07;;;20.00;99.90;;;21.60;71.62;100923.03;6183806;23;20012;-91
2021/08/12 21:07:37;;;;;;;11.13;7.47;;;20.00;99.90;;;21.62;71.25;100918.50;6184454;23;20016;-91
2021/08/12 21:10:06;;;;;;;14.65;8.30;;;20.10;99.90;;;21.64;70.79;100918.09;6184398;23;20036;-91
2021/08/12 21:12:32;;;;;;;13.02;7.53;;;20.10;99.90;;;21.67;70.10;100923.75;6184231;23;20024;-91
2021/08/12 21:14:58;;;;;;;10.98;8.57;;;20.10;99.90;;;21.72;70.17;100923.25;6184090;23;20009;-92
2021/08/12 21:17:24;;;;;;;10.50;8.07;;;20.20;99.90;;;21.77;70.14;100924.81;6186270;23;20019;-91
2021/08/12 21:19:50;;;;;;;15.10;8.75;;;20.20;99.90;;;21.77;70.75;100928.44;6186440;23;20009;-91
2021/08/12 21:22:16;;;;;;;13.77;8.80;;;20.20;99.90;;;21.74;70.84;100925.66;6186199;23;20060;-91
2021/08/12 21:24:43;;;;;;;12.88;9.13;;;20.10;99.90;;;21.68;70.83;100921.69;6185999;23;20043;-90
2021/08/12 21:27:10;;;;;;;13.95;7.93;;;20.20;99.90;;;21.61;71.19;100913.28;6186210;23;20009;-91
2021/08/12 21:29:36;;;;;;;11.55;8.27;;;20.10;99.90;;;21.50;72.84;100907.72;6185815;23;20013;-90
2021/08/12 21:32:06;;;;;;;11.70;8.55;;;20.00;99.90;;;21.41;74.10;100907.44;6186187;23;20013;-91
2021/08/12 21:34:33;;;;;;;13.63;8.52;;;19.80;99.90;;;21.23;74.68;100893.47;6186177;23;20016;-90
2021/08/12 21:36:59;;;;;;;13.20;9.05;;;19.70;99.90;;;21.10;75.66;100900.09;6186210;23;20351;-91
2021/08/12 21:39:25;;;;;;;10.85;8.55;;;19.60;99.90;;;20.95;76.54;100899.44;6185825;23;20177;-91
2021/08/12 21:41:52;;;;;;;11.55;8.85;;;19.40;99.90;;;20.86;77.11;100896.31;6185805;23;20013;-91
2021/08/12 21:44:19;;;;;;;13.88;8.93;;;19.30;99.90;;;20.73;77.42;100889.56;6186398;23;20088;-91
2021/08/12 21:46:44;;;;;;;13.77;8.82;;;19.20;99.90;;;20.60;77.52;100880.78;6185319;23;20015;-91
2021/08/12 21:49:10;;;;;;;13.38;8.80;;;19.10;99.90;;;20.52;77.96;100884.91;6185294;23;20084;-91
2021/08/12 21:51:41;;;;;;;14.65;9.30;;;19.00;99.90;;;20.43;78.04;100893.91;6185601;23;20055;-91
2021/08/12 21:54:08;;;;;;;11.90;8.90;;;18.90;99.90;;;20.31;78.00;100888.75;6186268;23;20005;-90
2021/08/12 21:56:34;;;;;;;12.10;8.63;;;18.80;99.90;;;20.16;78.03;100880.75;6185552;23;20009;-91
2021/08/12 21:59:00;;;;;;;12.75;8.98;;;18.70;99.90;;;20.08;78.90;100880.00;6185473;23;20067;-91
2021/08/12 22:01:30;;;;;;;19.60;8.63;;;18.60;99.90;;;20.02;79.93;100880.88;6185093;23;20013;-91
2021/08/12 22:03:57;;;;;;;12.75;8.52;;;18.50;99.90;;;19.89;80.76;100878.53;6185954;23;20008;-91
2021/08/12 22:06:23;;;;;;;15.40;9.18;;;18.50;99.90;;;19.78;82.31;100877.78;6187148;23;20009;-91
2021/08/12 22:08:50;;;;;;;12.43;8.90;;;18.30;99.90;;;19.65;83.65;100868.16;6184653;23;20040;-91
2021/08/12 22:11:19;;;;;;;15.73;9.55;;;18.20;99.90;;;19.57;84.32;100871.47;6184837;23;20309;-91
2021/08/12 22:13:46;;;;;;;13.95;9.32;;;18.20;99.90;;;19.46;85.11;100860.19;6184991;23;20013;-91
2021/08/12 22:16:13;;;;;;;17.27;10.25;;;18.10;99.90;;;19.43;85.15;100859.00;6185746;23;20005;-91
2021/08/12 22:18:39;;;;;;;13.88;8.90;;;18.00;99.90;;;19.35;85.69;100863.06;6190101;23;20009;-91
2021/08/12 22:21:05;;;;;;;17.58;10.70;;;17.90;99.90;;;19.32;86.67;100868.75;6189574;23;20004;-90
2021/08/12 22:23:31;;;;;;;10.80;9.00;;;17.80;99.90;;;19.20;87.14;100878.50;6189810;23;20012;-91
2021/08/12 22:25:57;;;;;;;12.60;8.93;;;17.80;99.90;;;19.10;87.79;100878.56;6189855;23;20091;-91
2021/08/12 22:28:24;;;;;;;14.20;10.30;;;17.70;99.90;;;19.05;88.67;100870.47;6189957;23;20453;-91
2021/08/12 22:30:51;;;;;;;14.52;9.80;;;17.60;99.90;;;18.99;89.68;100880.59;6189760;23;20279;-91
2021/08/12 22:33:17;;;;;;;16.02;10.10;;;17.60;99.90;;;18.95;89.78;100870.09;6214820;23;20387;-91
2021/08/12 22:35:44;;;;;;;18.20;10.52;;;17.60;99.90;;;18.93;89.89;100866.06;6190119;23;20012;-91
2021/08/12 22:38:10;;;;;;;13.07;9.07;;;17.50;99.90;;;18.92;90.37;100872.94;6189381;23;20009;-91
2021/08/12 22:40:36;;;;;;;14.48;10.23;;;17.50;99.90;;;18.86;90.59;100866.09;6189712;23;20040;-89
2021/08/12 22:43:03;;;;;;;16.88;11.52;;;17.50;99.90;;;18.87;91.14;100877.03;6189540;23;20009;-91
2021/08/12 22:45:29;;;;;;;15.52;10.18;;;17.40;99.90;;;18.78;91.41;100865.31;6189621;23;20095;-91
2021/08/12 22:47:58;;;;;;;14.57;10.02;;;17.30;99.90;;;18.71;92.02;100876.66;6189450;23;20095;-92
2021/08/12 22:50:24;;;;;;;13.10;9.90;;;17.20;99.90;;;18.59;92.71;100865.75;6189714;23;20005;-91
2021/08/12 22:52:50;;;;;;;12.88;10.45;;;17.20;99.90;;;18.58;93.61;100866.19;6189930;23;20008;-91
2021/08/12 22:55:18;;;;;;;17.25;10.50;;;17.10;99.90;;;18.60;94.45;100858.88;6240339;23;20001;-92
2021/08/12 22:57:45;;;;;;;17.05;9.93;;;17.20;99.90;;;18.60;94.67;100855.25;6199003;23;20043;-91
2021/08/12 23:00:21;;;;;;;14.95;9.95;;;17.10;99.90;;;18.56;95.32;100848.81;6189819;23;20012;-92
2021/08/12 23:02:48;;;;;;;14.57;9.80;;;17.10;99.90;;;18.48;95.27;100845.16;6189461;23;20009;-91
2021/08/12 23:05:28;;;;;;;14.48;10.35;;;17.10;99.90;;;18.45;95.74;100854.47;6190008;23;20013;-91
2021/08/12 23:08:15;;;;;;;15.15;10.32;;;17.00;99.90;;;18.47;95.99;100851.19;6189670;23;20013;-91
2021/08/12 23:10:41;;;;;;;13.95;10.05;;;17.00;99.90;;;18.50;95.72;100858.91;6189694;23;20016;-91
2021/08/12 23:13:09;;;;;;;16.23;10.90;;;17.00;99.90;;;18.44;96.32;100847.19;6189452;23;20005;-91
2021/08/12 23:15:35;;;;;;;14.90;10.02;;;17.10;99.90;;;18.46;96.15;100860.91;6189620;23;20008;-91
2021/08/12 23:18:02;;;;;;;16.27;10.13;;;17.10;99.90;;;18.45;96.03;100865.78;6184364;23;20338;-92
2021/08/12 23:20:33;;;;;;;10.95;9.20;;;17.10;99.90;;;18.39;95.96;100861.75;6184512;23;20009;-91
2021/08/12 23:23:02;;;;;;;13.15;10.52;;;17.00;99.90;;;18.40;95.65;100869.81;6184190;23;20009;-92
2021/08/12 23:25:31;;;;;;;16.52;9.82;;;17.00;99.90;;;18.34;96.06;100868.59;6184035;23;20082;-92
2021/08/12 23:31:36;;;;;;;15.38;9.98;;;16.90;99.90;;;18.30;95.69;100862.13;6187813;23;20093;-91
2021/08/12 23:34:46;;;;;;;17.15;10.07;;;16.90;99.90;;;18.35;94.79;100864.56;6211566;23;20096;-91
2021/08/12 23:38:31;;;;;;;13.52;9.90;;;17.00;99.90;;;18.47;93.89;100859.69;6162806;23;20040;-91
2021/08/12 23:41:38;;;;;;;15.52;9.32;;;17.10;99.90;;;18.50;92.97;100861.72;6157874;23;20093;-91
